Time;durP1;ratioP1;P1;durP2;ratioP2;P2;SDS_P1;SDS_P2;PMS_P1;PMS_P2;Temp;Humidity;BMP_temperature;BMP_pressure;BME280_temperature;BME280_humidity;BME280_pressure;Samples;Min_cycle;Max_cycle;Signal;HPM_P1;HPM_P2
2023/04/15 00:00:50;;;;;;;6.17;3.80;;;;;;;4.95;100.00;97204.78;5052251;28;20228;-79
2023/04/15 00:03:17;;;;;;;4.23;3.57;;;;;;;4.92;100.00;97194.50;5053195;28;20212;-79
2023/04/15 00:05:44;;;;;;;6.73;4.43;;;;;;;4.90;100.00;97198.97;5052961;28;20212;-79
2023/04/15 00:08:12;;;;;;;5.83;3.93;;;;;;;4.86;100.00;97197.50;5052922;28;20204;-80
2023/04/15 00:10:39;;;;;;;6.40;4.10;;;;;;;4.83;100.00;97200.28;5051972;28;20300;-79
2023/04/15 00:13:05;;;;;;;7.00;4.33;;;;;;;4.82;100.00;97203.03;5052720;28;20642;-79
2023/04/15 00:15:32;;;;;;;7.70;4.60;;;;;;;4.82;100.00;97203.84;5052688;28;20223;-79
2023/04/15 00:17:58;;;;;;;8.63;4.77;;;;;;;4.84;100.00;97207.19;5052665;28;20228;-79
2023/04/15 00:20:25;;;;;;;7.30;4.40;;;;;;;4.83;100.00;97204.69;5051717;28;20573;-80
2023/04/15 00:22:52;;;;;;;9.00;4.80;;;;;;;4.84;100.00;97203.75;5052665;28;20209;-80
2023/04/15 00:25:20;;;;;;;6.80;4.30;;;;;;;4.83;100.00;97204.69;5052438;28;20679;-79
2023/04/15 00:27:46;;;;;;;6.17;4.47;;;;;;;4.80;100.00;97202.25;5052513;28;20211;-80
2023/04/15 00:30:13;;;;;;;7.33;4.97;;;;;;;4.76;100.00;97198.97;5051827;28;20680;-80
2023/04/15 00:32:41;;;;;;;8.63;5.37;;;;;;;4.69;100.00;97197.69;5052223;28;20220;-79
2023/04/15 00:35:08;;;;;;;7.73;5.70;;;;;;;4.61;100.00;97197.31;5052303;28;20213;-79
2023/04/15 00:37:35;;;;;;;8.10;4.83;;;;;;;4.61;100.00;97189.47;5052418;28;20583;-79
2023/04/15 00:40:03;;;;;;;6.93;4.70;;;;;;;4.63;100.00;97187.59;5051459;28;20216;-79
2023/04/15 00:42:32;;;;;;;9.27;5.03;;;;;;;4.63;100.00;97191.97;5052004;28;20295;-79
2023/04/15 00:44:58;;;;;;;5.77;4.20;;;;;;;4.58;100.00;97188.81;5052231;28;20204;-79
2023/04/15 00:47:26;;;;;;;6.93;4.67;;;;;;;4.57;100.00;97187.94;5052222;28;20210;-79
2023/04/15 00:49:52;;;;;;;8.53;5.37;;;;;;;4.64;100.00;97184.03;5051790;28;20215;-79
2023/04/15 00:52:19;;;;;;;9.00;5.10;;;;;;;4.69;100.00;97181.97;5052173;28;20314;-80
2023/04/15 00:54:45;;;;;;;9.83;5.10;;;;;;;4.65;100.00;97185.69;5052180;28;20208;-80
2023/04/15 00:57:12;;;;;;;8.43;4.67;;;;;;;4.58;100.00;97194.88;5051901;28;20244;-80
2023/04/15 00:59:40;;;;;;;5.70;4.50;;;;;;;4.50;100.00;97191.88;5050275;28;20207;-80
2023/04/15 01:02:06;;;;;;;8.30;5.13;;;;;;;4.36;100.00;97199.72;5049164;28;20243;-79
2023/04/15 01:04:33;;;;;;;6.57;4.70;;;;;;;4.26;100.00;97203.78;5049068;28;20211;-79
2023/04/15 01:07:00;;;;;;;6.13;4.27;;;;;;;4.15;100.00;97200.13;5049403;28;20205;-79
2023/04/15 01:09:26;;;;;;;7.43;4.80;;;;;;;4.02;100.00;97205.22;5051207;28;20666;-80
2023/04/15 01:11:53;;;;;;;9.57;5.40;;;;;;;3.96;100.00;97200.34;5052038;28;20227;-79
2023/04/15 01:14:21;;;;;;;7.13;5.00;;;;;;;3.89;100.00;97204.25;5051847;28;20257;-79
2023/04/15 01:16:48;;;;;;;8.00;5.03;;;;;;;3.81;100.00;97201.25;5051778;28;20589;-79
2023/04/15 01:19:17;;;;;;;6.63;4.97;;;;;;;3.74;100.00;97205.13;5051147;28;20220;-79
2023/04/15 01:21:44;;;;;;;7.37;5.17;;;;;;;3.74;100.00;97205.13;5051442;28;20289;-79
2023/04/15 01:24:11;;;;;;;7.07;5.03;;;;;;;3.75;100.00;97201.59;5051556;28;20218;-80
2023/04/15 01:26:40;;;;;;;7.80;5.17;;;;;;;3.69;100.00;97201.09;5051683;28;20221;-79
2023/04/15 01:29:07;;;;;;;7.23;5.17;;;;;;;3.70;100.00;97208.84;5051172;28;20202;-79
2023/04/15 01:31:33;;;;;;;6.97;4.77;;;;;;;3.66;100.00;97204.72;5051480;28;20243;-79
2023/04/15 01:34:01;;;;;;;6.43;5.30;;;;;;;3.58;100.00;97198.22;5051952;28;20211;-79
2023/04/15 01:36:27;;;;;;;8.60;5.30;;;;;;;3.59;100.00;97198.16;5051555;28;20311;-79
2023/04/15 01:38:56;;;;;;;9.07;5.20;;;;;;;3.61;100.00;97209.34;5051493;28;20234;-79
2023/04/15 01:41:24;;;;;;;8.53;5.50;;;;;;;3.60;100.00;97193.78;5050823;28;20246;-80
2023/04/15 01:43:52;;;;;;;9.33;5.70;;;;;;;3.60;100.00;97202.44;5051205;28;20691;-79
2023/04/15 01:46:19;;;;;;;7.77;4.77;;;;;;;3.55;100.00;97194.03;5051320;28;20647;-79
2023/04/15 01:48:46;;;;;;;6.50;5.10;;;;;;;3.56;100.00;97195.69;5051199;28;20204;-79
2023/04/15 01:51:12;;;;;;;7.77;4.83;;;;;;;3.61;100.00;97198.06;5050707;28;20285;-80
2023/04/15 01:53:39;;;;;;;8.23;5.30;;;;;;;3.64;100.00;97196.13;5051293;28;20205;-79
2023/04/15 01:56:06;;;;;;;7.70;5.00;;;;;;;3.59;100.00;97200.78;5051321;28;20667;-79
2023/04/15 01:58:33;;;;;;;5.87;4.77;;;;;;;3.60;100.00;97192.00;5051229;28;20254;-79
2023/04/15 02:01:02;;;;;;;9.07;5.53;;;;;;;3.56;100.00;97193.09;5050702;28;20613;-79
2023/04/15 02:03:29;;;;;;;7.87;5.03;;;;;;;3.50;100.00;97190.84;5051635;28;20207;-79
2023/04/15 02:05:56;;;;;;;8.83;5.23;;;;;;;3.48;100.00;97191.88;5051298;28;20555;-79
2023/04/15 02:08:23;;;;;;;7.50;5.17;;;;;;;3.49;100.00;97183.91;5051815;28;20208;-79
2023/04/15 02:10:49;;;;;;;7.50;5.23;;;;;;;3.53;100.00;97190.66;5050621;28;20231;-79
2023/04/15 02:13:16;;;;;;;7.80;5.50;;;;;;;3.58;100.00;97187.78;5051203;28;20298;-79
2023/04/15 02:15:47;;;;;;;8.30;5.80;;;;;;;3.59;100.00;97184.25;5050895;28;20237;-79
2023/04/15 02:18:15;;;;;;;10.60;5.57;;;;;;;3.58;100.00;97183.41;5050625;28;20228;-79
2023/04/15 02:20:42;;;;;;;11.13;5.37;;;;;;;3.52;100.00;97181.16;5049875;28;20224;-79
2023/04/15 02:23:09;;;;;;;8.53;5.13;;;;;;;3.51;100.00;97176.84;5050646;28;20569;-79
2023/04/15 02:25:37;;;;;;;8.80;5.60;;;;;;;3.50;100.00;97174.31;5050765;28;20220;-79
2023/04/15 02:28:05;;;;;;;9.40;5.93;;;;;;;3.53;100.00;97172.38;5050462;28;20385;-79
2023/04/15 02:30:31;;;;;;;7.67;5.30;;;;;;;3.55;100.00;97183.56;5049746;28;20204;-80
2023/04/15 02:32:58;;;;;;;10.27;5.53;;;;;;;3.56;100.00;97176.59;5050792;28;20223;-79
2023/04/15 02:35:25;;;;;;;9.17;5.27;;;;;;;3.55;100.00;97178.34;5054431;28;20223;-80
2023/04/15 02:37:52;;;;;;;11.00;5.90;;;;;;;3.56;100.00;97182.63;5054332;28;20239;-80
2023/04/15 02:40:19;;;;;;;7.30;4.77;;;;;;;3.55;100.00;97188.78;5053630;28;20211;-80
2023/04/15 02:42:45;;;;;;;6.77;4.77;;;;;;;3.50;100.00;97180.41;5054347;28;20215;-79
2023/04/15 02:45:12;;;;;;;8.87;4.80;;;;;;;3.47;100.00;97174.47;5054231;28;20221;-79
2023/04/15 02:47:40;;;;;;;8.30;4.83;;;;;;;3.43;100.00;97179.03;5054449;28;20220;-79
2023/04/15 02:50:11;;;;;;;9.60;4.90;;;;;;;3.41;100.00;97174.81;5053687;28;20667;-80
2023/04/15 02:52:39;;;;;;;9.57;5.00;;;;;;;3.44;100.00;97179.91;5054310;28;20228;-79
2023/04/15 02:55:07;;;;;;;6.03;4.67;;;;;;;3.41;100.00;97178.28;5054238;28;20208;-79
2023/04/15 02:57:35;;;;;;;10.13;5.57;;;;;;;3.44;100.00;97185.97;5054537;28;20657;-80
2023/04/15 03:00:02;;;;;;;7.40;5.17;;;;;;;3.45;100.00;97179.81;5053440;28;20214;-80
2023/04/15 03:02:33;;;;;;;6.53;5.17;;;;;;;3.43;100.00;97184.25;5054033;28;20270;-79
2023/04/15 03:05:00;;;;;;;9.17;5.50;;;;;;;3.42;100.00;97193.03;5054050;28;20205;-79
2023/04/15 03:07:26;;;;;;;9.07;5.30;;;;;;;3.39;100.00;97193.22;5054256;28;20214;-79
2023/04/15 03:09:54;;;;;;;8.60;5.80;;;;;;;3.36;100.00;97182.94;5053302;28;20558;-79
2023/04/15 03:12:21;;;;;;;6.73;5.47;;;;;;;3.30;100.00;97185.88;5053776;28;20247;-79
2023/04/15 03:14:47;;;;;;;9.37;5.90;;;;;;;3.34;100.00;97184.78;5053891;28;20212;-79
2023/04/15 03:17:14;;;;;;;10.87;5.60;;;;;;;3.42;100.00;97182.59;5054059;28;20208;-79
2023/04/15 03:19:41;;;;;;;9.27;5.70;;;;;;;3.41;100.00;97180.06;5053113;28;20234;-79
2023/04/15 03:22:07;;;;;;;6.53;5.20;;;;;;;3.41;100.00;97180.06;5053966;28;20243;-79
2023/04/15 03:24:33;;;;;;;8.13;5.40;;;;;;;3.42;100.00;97179.97;5053897;28;20212;-79
2023/04/15 03:27:02;;;;;;;7.57;5.17;;;;;;;3.43;100.00;97173.81;5054158;28;20208;-79
2023/04/15 03:29:28;;;;;;;9.33;5.43;;;;;;;3.41;100.00;97180.91;5053438;28;20614;-79
2023/04/15 03:31:55;;;;;;;9.67;6.13;;;;;;;3.38;100.00;97183.72;5053905;28;20226;-80
2023/04/15 03:34:21;;;;;;;7.73;5.63;;;;;;;3.36;100.00;97189.94;5053586;28;20211;-79
2023/04/15 03:36:48;;;;;;;8.27;5.53;;;;;;;3.32;100.00;97181.44;5053841;28;20211;-80
2023/04/15 03:39:14;;;;;;;8.33;5.63;;;;;;;3.27;100.00;97172.16;5052917;28;20228;-80
2023/04/15 03:41:41;;;;;;;8.77;5.33;;;;;;;3.21;100.00;97165.50;5053425;28;20558;-79
2023/04/15 03:44:09;;;;;;;11.07;5.97;;;;;;;3.22;100.00;97177.63;5052885;28;20208;-79
2023/04/15 03:46:35;;;;;;;9.00;5.60;;;;;;;3.17;100.00;97177.03;5053360;28;20207;-79
2023/04/15 03:49:02;;;;;;;9.20;6.20;;;;;;;3.17;100.00;97179.66;5053030;28;20218;-79
2023/04/15 03:51:30;;;;;;;8.87;6.03;;;;;;;3.20;100.00;97176.88;5052920;28;20228;-79
2023/04/15 03:53:57;;;;;;;7.30;5.47;;;;;;;3.18;100.00;97176.09;5053160;28;20238;-79
2023/04/15 03:56:24;;;;;;;8.40;5.73;;;;;;;3.18;100.00;97173.50;5053260;28;20215;-79
2023/04/15 03:58:50;;;;;;;6.43;5.77;;;;;;;3.11;100.00;97182.59;5053258;28;20235;-79
2023/04/15 04:01:18;;;;;;;6.93;5.60;;;;;;;3.05;100.00;97188.16;5052354;28;20228;-79
2023/04/15 04:03:45;;;;;;;9.77;5.80;;;;;;;3.00;100.00;97192.78;5053342;28;20227;-79
2023/04/15 04:06:12;;;;;;;8.33;5.87;;;;;;;2.96;100.00;97186.06;5053295;28;20217;-79
2023/04/15 04:08:38;;;;;;;9.40;5.33;;;;;;;2.98;100.00;97184.19;5053035;28;20261;-79
2023/04/15 04:11:05;;;;;;;8.10;5.60;;;;;;;2.97;100.00;97185.13;5052088;28;20232;-79
2023/04/15 04:13:31;;;;;;;9.83;6.13;;;;;;;2.97;100.00;97190.34;5053110;28;20299;-79
2023/04/15 04:15:58;;;;;;;9.37;6.47;;;;;;;3.08;100.00;97195.84;5052688;28;20215;-79
2023/04/15 04:18:26;;;;;;;9.77;6.03;;;;;;;3.17;100.00;97192.72;5052726;28;20710;-79
2023/04/15 04:20:52;;;;;;;10.97;6.17;;;;;;;3.17;100.00;97197.09;5051984;28;20243;-79
2023/04/15 04:23:19;;;;;;;9.63;5.83;;;;;;;3.10;100.00;97191.38;5052978;28;20698;-79
2023/04/15 04:25:46;;;;;;;9.03;5.83;;;;;;;3.00;100.00;97199.78;5052715;28;20289;-79
2023/04/15 04:28:12;;;;;;;9.63;5.67;;;;;;;2.94;100.00;97190.50;5052278;28;20207;-79
2023/04/15 04:30:39;;;;;;;8.37;6.17;;;;;;;2.88;100.00;97190.81;5051355;28;20232;-79
2023/04/15 04:33:07;;;;;;;8.17;5.87;;;;;;;2.84;100.00;97198.91;5052391;28;20208;-79
2023/04/15 04:35:36;;;;;;;7.97;6.23;;;;;;;2.81;100.00;97205.13;5052146;28;20220;-79
2023/04/15 04:38:03;;;;;;;8.57;5.67;;;;;;;2.78;100.00;97194.88;5052155;28;20231;-79
2023/04/15 04:40:29;;;;;;;7.13;5.70;;;;;;;2.66;100.00;97198.13;5051300;28;20579;-79
2023/04/15 04:42:56;;;;;;;10.30;6.23;;;;;;;2.56;100.00;97194.31;5052321;28;20211;-79
2023/04/15 04:45:22;;;;;;;14.93;8.07;;;;;;;2.52;100.00;97203.22;5052277;28;20211;-79
2023/04/15 04:47:49;;;;;;;11.00;7.80;;;;;;;2.56;100.00;97203.91;5052016;28;20212;-79
2023/04/15 04:50:16;;;;;;;8.77;5.90;;;;;;;2.57;100.00;97201.22;5051215;28;20210;-79
2023/04/15 04:52:44;;;;;;;11.50;6.67;;;;;;;2.57;100.00;97201.22;5052044;28;20245;-79
2023/04/15 04:55:11;;;;;;;9.17;6.30;;;;;;;2.58;100.00;97210.72;5052064;28;20231;-79
2023/04/15 04:57:38;;;;;;;8.93;6.50;;;;;;;2.61;100.00;97207.97;5051591;28;20686;-79
2023/04/15 05:00:07;;;;;;;8.40;6.10;;;;;;;2.66;100.00;97200.75;5051384;28;20634;-79
2023/04/15 05:02:34;;;;;;;12.03;7.03;;;;;;;2.71;100.00;97208.31;5052058;28;20224;-79
2023/04/15 05:05:00;;;;;;;11.33;6.83;;;;;;;2.82;100.00;97206.81;5052409;28;20210;-79
2023/04/15 05:07:27;;;;;;;8.73;6.77;;;;;;;2.92;100.00;97205.41;5052007;28;20221;-79
2023/04/15 05:09:54;;;;;;;8.77;6.63;;;;;;;3.00;100.00;97200.59;5051208;28;20212;-79
2023/04/15 05:12:21;;;;;;;13.30;6.53;;;;;;;3.03;100.00;97200.47;5051709;28;20340;-79
2023/04/15 05:14:47;;;;;;;9.67;6.30;;;;;;;3.10;100.00;97206.16;5051820;28;20205;-79
2023/04/15 05:17:14;;;;;;;10.37;6.53;;;;;;;3.10;100.00;97204.41;5051835;28;20218;-79
2023/04/15 05:19:40;;;;;;;14.77;7.17;;;;;;;3.11;100.00;97208.72;5051492;28;20275;-79
2023/04/15 05:22:07;;;;;;;11.10;6.47;;;;;;;3.12;100.00;97205.16;5051907;28;20233;-79
2023/04/15 05:24:34;;;;;;;10.27;6.90;;;;;;;3.16;100.00;97211.91;5051926;28;20223;-79
2023/04/15 05:27:02;;;;;;;11.60;7.13;;;;;;;3.18;100.00;97207.44;5051937;28;20222;-79
2023/04/15 05:29:29;;;;;;;9.33;6.63;;;;;;;3.23;100.00;97207.19;5051143;28;20218;-79
2023/04/15 05:31:55;;;;;;;9.87;6.90;;;;;;;3.21;100.00;97204.69;5051167;28;20232;-79
2023/04/15 05:34:22;;;;;;;8.03;6.07;;;;;;;3.25;100.00;97206.16;5051744;28;20262;-79
2023/04/15 05:36:49;;;;;;;11.07;7.10;;;;;;;3.29;100.00;97209.44;5051594;28;20227;-79
2023/04/15 05:39:15;;;;;;;9.27;6.33;;;;;;;3.27;100.00;97208.72;5050699;28;20628;-79
2023/04/15 05:41:42;;;;;;;9.60;6.90;;;;;;;3.32;100.00;97212.78;5051677;28;20236;-79
2023/04/15 05:44:10;;;;;;;10.03;6.13;;;;;;;3.43;100.00;97209.56;5051627;28;20306;-79
2023/04/15 05:46:37;;;;;;;9.73;6.00;;;;;;;3.58;100.00;97212.16;5051541;28;20216;-79
2023/04/15 05:49:03;;;;;;;12.10;6.47;;;;;;;3.72;100.00;97206.97;5051210;28;20212;-79
2023/04/15 05:51:30;;;;;;;11.07;6.07;;;;;;;3.87;100.00;97211.34;5050596;28;20232;-79
2023/04/15 05:53:56;;;;;;;9.50;5.67;;;;;;;4.03;100.00;97201.69;5051011;28;20243;-79
2023/04/15 05:56:23;;;;;;;9.47;6.13;;;;;;;4.23;100.00;97217.03;5051321;28;20215;-79
2023/04/15 05:58:50;;;;;;;9.10;5.97;;;;;;;4.44;100.00;97217.53;5050977;28;20231;-79
2023/04/15 06:01:21;;;;;;;10.70;6.03;;;;;;;4.61;100.00;97209.53;5050142;28;20708;-79
2023/04/15 06:03:49;;;;;;;8.17;5.97;;;;;;;4.85;100.00;97211.53;5051211;28;20212;-78
2023/04/15 06:06:16;;;;;;;10.50;5.93;;;;;;;5.06;100.00;97212.81;5050916;28;20294;-79
2023/04/15 06:08:42;;;;;;;10.83;5.80;;;;;;;5.33;100.00;97210.25;5054515;28;20552;-79
2023/04/15 06:11:09;;;;;;;10.20;6.33;;;;;;;5.62;100.00;97207.47;5054384;28;20264;-79
2023/04/15 06:13:35;;;;;;;7.27;5.30;;;;;;;5.93;100.00;97204.56;5055156;28;20565;-79
2023/04/15 06:16:02;;;;;;;7.93;5.23;;;;;;;6.14;100.00;97200.53;5055215;28;20227;-79
2023/04/15 06:18:30;;;;;;;9.20;5.40;;;;;;;6.21;100.00;97204.44;5054797;28;20236;-79
2023/04/15 06:20:59;;;;;;;7.37;5.47;;;;;;;6.34;100.00;97202.66;5053914;28;20237;-78
2023/04/15 06:23:28;;;;;;;6.17;5.17;;;;;;;6.46;100.00;97212.34;5055469;28;20307;-79
2023/04/15 06:25:55;;;;;;;9.37;5.57;;;;;;;6.58;100.00;97206.25;5054874;28;20214;-80
2023/04/15 06:28:23;;;;;;;10.63;5.80;;;;;;;6.76;98.99;97207.63;5054888;28;20213;-81
2023/04/15 06:30:49;;;;;;;6.53;4.93;;;;;;;6.83;98.13;97210.69;5053945;28;20226;-78
2023/04/15 06:33:16;;;;;;;8.03;5.53;;;;;;;6.97;97.03;97208.75;5054604;28;20224;-80
2023/04/15 06:35:44;;;;;;;9.47;5.70;;;;;;;7.15;96.41;97211.91;5054667;28;20255;-77
2023/04/15 06:38:10;;;;;;;8.63;5.40;;;;;;;7.25;95.09;97219.03;5054770;28;20752;-77
2023/04/15 06:40:37;;;;;;;7.47;5.23;;;;;;;7.33;95.10;97216.69;5054078;28;20236;-77
2023/04/15 06:43:04;;;;;;;7.73;5.10;;;;;;;7.43;94.10;97226.47;5055006;28;20211;-77
2023/04/15 06:45:31;;;;;;;7.37;5.00;;;;;;;7.59;92.86;97218.34;5054727;28;20292;-79
2023/04/15 06:47:59;;;;;;;7.17;4.40;;;;;;;7.76;91.27;97217.94;5054705;28;20214;-77
2023/04/15 06:50:26;;;;;;;5.27;4.17;;;;;;;7.87;90.09;97210.13;5053933;28;20206;-77
2023/04/15 06:52:54;;;;;;;7.03;4.13;;;;;;;8.01;88.83;97209.94;5054711;28;20259;-78
2023/04/15 06:55:21;;;;;;;5.57;4.70;;;;;;;8.08;86.70;97206.75;5054533;28;20217;-77
2023/04/15 06:57:48;;;;;;;6.70;4.53;;;;;;;8.13;85.65;97203.78;5054419;28;20213;-77
2023/04/15 07:00:15;;;;;;;7.83;4.90;;;;;;;8.25;85.44;97213.41;5053365;28;20733;-77
2023/04/15 07:02:41;;;;;;;8.23;5.63;;;;;;;8.30;89.45;97221.81;5053940;28;20224;-77
2023/04/15 07:05:08;;;;;;;7.67;5.50;;;;;;;8.34;89.83;97234.63;5054074;28;20216;-77
2023/04/15 07:07:36;;;;;;;5.90;4.80;;;;;;;8.20;90.31;97221.66;5054010;28;20220;-77
2023/04/15 07:10:04;;;;;;;7.30;5.40;;;;;;;8.07;90.86;97230.53;5053010;28;20211;-77
2023/04/15 07:12:34;;;;;;;9.37;5.00;;;;;;;7.92;91.07;97223.78;5053578;28;20236;-76
2023/04/15 07:15:01;;;;;;;6.57;4.90;;;;;;;7.81;91.74;97223.72;5053684;28;20215;-79
2023/04/15 07:17:27;;;;;;;7.77;5.43;;;;;;;7.74;91.64;97222.47;5053776;28;20212;-78
2023/04/15 07:19:54;;;;;;;6.53;5.13;;;;;;;7.66;92.86;97223.03;5052328;28;20235;-76
2023/04/15 07:22:20;;;;;;;7.43;5.00;;;;;;;7.66;93.13;97224.84;5053375;28;20247;-76
2023/04/15 07:24:47;;;;;;;7.47;5.10;;;;;;;7.71;92.96;97218.28;5053476;28;20590;-76
2023/04/15 07:27:16;;;;;;;8.20;5.40;;;;;;;7.77;93.28;97223.09;5053511;28;20222;-76
2023/04/15 07:29:42;;;;;;;10.33;5.77;;;;;;;7.89;92.92;97214.31;5052929;28;20277;-76
2023/04/15 07:32:09;;;;;;;6.37;4.60;;;;;;;8.05;93.00;97217.50;5053487;28;20734;-77
2023/04/15 07:34:36;;;;;;;6.60;5.10;;;;;;;8.26;92.03;97217.75;5053759;28;20591;-76
2023/04/15 07:37:02;;;;;;;7.43;5.20;;;;;;;8.50;91.15;97206.22;5053626;28;20212;-77
2023/04/15 07:39:29;;;;;;;5.93;4.50;;;;;;;8.80;89.40;97210.94;5052758;28;20243;-76
2023/04/15 07:41:57;;;;;;;8.13;4.77;;;;;;;9.02;86.79;97206.56;5053234;28;20240;-77
2023/04/15 07:44:26;;;;;;;6.13;4.63;;;;;;;9.22;84.06;97191.78;5053229;28;20565;-76
2023/04/15 07:46:52;;;;;;;7.97;4.93;;;;;;;9.36;81.52;97188.94;5053075;28;20353;-82
2023/04/15 07:49:20;;;;;;;7.07;4.80;;;;;;;9.47;81.03;97191.53;5052500;28;20208;-82
2023/04/15 07:51:46;;;;;;;7.38;5.22;;;;;;;9.69;80.39;97191.50;5052161;28;20444;-75
2023/04/15 07:54:13;;;;;;;9.73;5.40;;;;;;;9.73;78.97;97185.03;5053141;28;20215;-76
2023/04/15 07:56:40;;;;;;;7.17;4.70;;;;;;;9.77;78.43;97184.66;5052846;28;20211;-75
2023/04/15 07:59:06;;;;;;;8.37;4.97;;;;;;;9.93;79.16;97192.16;5052922;28;20679;-75
2023/04/15 08:01:34;;;;;;;9.07;5.07;;;;;;;10.05;80.36;97194.69;5052943;28;20232;-76
2023/04/15 08:04:01;;;;;;;9.13;5.90;;;;;;;10.23;82.01;97205.53;5053001;28;20210;-77
2023/04/15 08:06:28;;;;;;;6.87;5.37;;;;;;;10.34;85.77;97203.66;5052755;28;20688;-76
2023/04/15 08:08:55;;;;;;;8.53;5.23;;;;;;;10.35;85.09;97202.69;5052785;28;20223;-76
2023/04/15 08:11:21;;;;;;;6.60;4.67;;;;;;;10.39;80.73;97187.47;5052048;28;20235;-77
2023/04/15 08:13:54;;;;;;;7.13;5.00;;;;;;;10.40;81.08;97184.66;5052620;28;20246;-77
2023/04/15 08:16:23;;;;;;;6.60;5.17;;;;;;;10.47;79.70;97179.72;5052439;28;20218;-79
2023/04/15 08:18:52;;;;;;;7.83;5.03;;;;;;;10.57;78.71;97177.97;5052554;28;20247;-77
2023/04/15 08:21:20;;;;;;;6.73;5.07;;;;;;;10.80;77.83;97179.50;5067824;22;20222;-84
2023/04/15 08:23:48;;;;;;;8.70;5.47;;;;;;;11.07;79.23;97185.09;5072477;28;20598;-82
2023/04/15 08:26:14;;;;;;;9.27;5.10;;;;;;;11.12;76.98;97180.25;5072459;28;20214;-82
2023/04/15 08:28:42;;;;;;;7.80;4.83;;;;;;;11.25;75.72;97172.94;5072521;28;20217;-82
2023/04/15 08:31:09;;;;;;;7.23;4.73;;;;;;;11.37;72.59;97159.47;5070880;28;20204;-82
2023/04/15 08:33:35;;;;;;;8.67;4.87;;;;;;;11.50;69.55;97152.13;5072239;28;20207;-82
2023/04/15 08:36:03;;;;;;;5.83;4.87;;;;;;;11.52;69.17;97149.34;5072492;28;20229;-82
2023/04/15 08:38:30;;;;;;;9.63;5.07;;;;;;;11.55;69.21;97149.09;5072137;28;20650;-83
2023/04/15 08:40:59;;;;;;;9.10;4.47;;;;;;;11.56;68.97;97151.56;5071370;28;20235;-83
2023/04/15 08:43:29;;;;;;;8.23;4.37;;;;;;;11.73;66.10;97144.84;5070654;28;20665;-83
2023/04/15 08:45:57;;;;;;;8.57;3.83;;;;;;;11.78;64.23;97139.94;5069197;28;20210;-83
2023/04/15 08:48:27;;;;;;;7.80;3.90;;;;;;;11.95;62.39;97131.31;5071561;28;20706;-85
2023/04/15 08:50:54;;;;;;;6.40;3.77;;;;;;;12.09;60.81;97122.97;5071259;28;20294;-83
2023/04/15 08:53:22;;;;;;;6.40;3.90;;;;;;;12.21;60.83;97127.13;5071415;28;20215;-85
2023/04/15 08:55:52;;;;;;;7.40;4.03;;;;;;;12.27;60.93;97130.06;5072061;28;20204;-86
2023/04/15 08:58:19;;;;;;;6.03;4.20;;;;;;;12.28;58.90;97117.69;5071739;28;20206;-83
2023/04/15 09:00:47;;;;;;;5.50;4.00;;;;;;;12.41;59.32;97118.22;5070944;28;20619;-83
2023/04/15 09:03:14;;;;;;;5.77;3.13;;;;;;;12.58;56.03;97104.22;5071618;28;20896;-82
2023/04/15 09:05:41;;;;;;;4.40;2.70;;;;;;;12.74;54.97;97093.84;5071764;28;20269;-79
2023/04/15 09:08:07;;;;;;;7.17;3.50;;;;;;;12.88;54.33;97096.03;5071668;28;20207;-78
2023/04/15 09:10:36;;;;;;;3.03;2.70;;;;;;;12.91;54.00;97095.75;5070735;28;20682;-77
2023/04/15 09:13:03;;;;;;;4.87;2.77;;;;;;;12.65;53.80;97089.44;5068446;28;20242;-79
2023/04/15 09:15:32;;;;;;;5.47;2.97;;;;;;;12.73;54.27;97103.66;5068921;28;20293;-79
2023/04/15 09:17:58;;;;;;;5.20;2.73;;;;;;;13.04;53.93;97101.59;5068745;28;20601;-79
2023/04/15 09:20:25;;;;;;;4.77;2.73;;;;;;;13.18;53.47;97101.09;5070020;28;20233;-78
2023/04/15 09:22:52;;;;;;;3.03;2.63;;;;;;;13.23;53.48;97104.16;5071144;28;20611;-80
2023/04/15 09:25:29;;;;;;;4.90;3.10;;;;;;;13.25;52.17;97104.84;5068975;28;20212;-80
2023/04/15 09:27:58;;;;;;;4.70;3.80;;;;;;;13.50;54.21;97125.41;5068241;28;20296;-80
2023/04/15 09:30:25;;;;;;;3.70;3.00;;;;;;;13.56;52.34;97103.59;5067996;28;20218;-80
2023/04/15 09:32:53;;;;;;;6.90;3.10;;;;;;;13.50;50.85;97096.22;5070946;28;20724;-80
2023/04/15 09:35:20;;;;;;;4.27;2.77;;;;;;;13.36;51.51;97105.50;5071152;28;20216;-79
2023/04/15 09:37:47;;;;;;;3.70;2.70;;;;;;;13.52;53.47;97131.41;5068270;28;20701;-78
2023/04/15 09:40:13;;;;;;;4.77;3.20;;;;;;;13.65;53.29;97124.75;5067498;28;20238;-78
2023/04/15 09:43:00;;;;;;;4.60;3.07;;;;;;;13.54;51.30;97105.53;5068460;28;20237;-78
2023/04/15 09:45:27;;;;;;;3.87;3.10;;;;;;;13.66;52.11;97120.28;5051119;28;20600;-78
2023/04/15 09:47:54;;;;;;;4.90;3.53;;;;;;;13.78;51.83;97127.03;5050154;28;20208;-78
2023/04/15 09:50:20;;;;;;;5.13;3.23;;;;;;;13.67;52.12;97129.91;5047112;28;20206;-78
2023/04/15 09:52:47;;;;;;;4.80;3.80;;;;;;;13.74;52.23;97129.16;5047824;28;20226;-77
2023/04/15 09:55:15;;;;;;;4.40;3.60;;;;;;;13.78;52.25;97130.53;5049272;28;20207;-79
2023/04/15 09:57:43;;;;;;;4.23;3.60;;;;;;;13.75;53.68;97145.94;5051034;28;20680;-80
2023/04/15 10:00:11;;;;;;;4.80;3.17;;;;;;;13.78;52.60;97135.84;5050012;28;20234;-77
2023/04/15 10:02:40;;;;;;;3.77;3.13;;;;;;;13.84;52.97;97139.72;5050729;28;20247;-77
2023/04/15 10:05:07;;;;;;;5.80;4.13;;;;;;;13.85;52.88;97141.38;5050613;28;20208;-78
2023/04/15 10:07:34;;;;;;;3.83;3.27;;;;;;;13.82;53.54;97147.81;5050774;28;20278;-78
2023/04/15 10:10:02;;;;;;;5.00;3.10;;;;;;;13.52;52.54;97136.72;5049921;28;20219;-77
2023/04/15 10:12:32;;;;;;;3.90;2.80;;;;;;;13.78;53.60;97145.63;5050346;28;20241;-79
2023/04/15 10:15:03;;;;;;;6.53;3.40;;;;;;;13.74;52.85;97138.97;5050709;28;20698;-79
2023/04/15 10:17:34;;;;;;;4.20;3.10;;;;;;;13.99;53.56;97151.50;5050745;28;20254;-77
2023/04/15 10:20:01;;;;;;;4.03;2.97;;;;;;;14.25;52.21;97129.34;5049800;28;20355;-78
2023/04/15 10:22:28;;;;;;;3.97;2.90;;;;;;;14.38;52.89;97150.25;5050397;28;20241;-78
2023/04/15 10:24:56;;;;;;;3.67;2.60;;;;;;;14.42;51.41;97141.81;5050579;28;20262;-78
2023/04/15 10:27:23;;;;;;;3.37;2.80;;;;;;;14.37;50.59;97125.47;5050693;28;20214;-78
2023/04/15 10:29:51;;;;;;;4.43;2.63;;;;;;;14.22;51.55;97136.81;5049679;28;20211;-78
2023/04/15 10:32:20;;;;;;;3.80;2.43;;;;;;;14.34;51.07;97133.78;5050050;28;20234;-78
2023/04/15 10:34:49;;;;;;;5.60;2.70;;;;;;;14.35;49.55;97116.00;5050720;28;20256;-78
2023/04/15 10:37:21;;;;;;;3.30;2.50;;;;;;;14.26;50.17;97140.84;5050594;28;20258;-83
2023/04/15 10:39:47;;;;;;;4.20;2.80;;;;;;;14.20;50.92;97141.44;5049826;28;20211;-78
2023/04/15 10:42:16;;;;;;;4.47;2.87;;;;;;;14.15;51.53;97149.84;5050481;28;20231;-80
2023/04/15 10:44:44;;;;;;;4.67;2.90;;;;;;;14.08;52.04;97158.56;5050320;28;20221;-85
2023/04/15 10:47:12;;;;;;;3.60;2.60;;;;;;;13.96;49.39;97134.06;5050687;28;20217;-84
2023/04/15 10:49:48;;;;;;;5.00;2.93;;;;;;;13.83;50.14;97138.91;5049710;28;20219;-82
2023/04/15 10:52:16;;;;;;;5.77;3.00;;;;;;;13.83;50.39;97151.34;5050379;28;20228;-77
2023/04/15 10:54:44;;;;;;;7.13;3.30;;;;;;;13.93;51.82;97160.91;5052110;28;20577;-78
2023/04/15 10:57:15;;;;;;;4.10;3.10;;;;;;;13.94;52.26;97164.41;5053838;28;20215;-79
2023/04/15 11:00:05;;;;;;;4.53;3.10;;;;;;;14.09;49.77;97139.81;5053316;28;20219;-78
2023/04/15 11:02:42;;;;;;;5.77;3.07;;;;;;;14.41;52.04;97169.38;5053924;28;20302;-78
2023/04/15 11:05:10;;;;;;;4.80;3.10;;;;;;;14.57;48.88;97123.47;5053688;28;20201;-78
2023/04/15 11:07:40;;;;;;;7.80;3.67;;;;;;;14.73;48.93;97139.56;5053740;28;20208;-78
2023/04/15 11:10:54;;;;;;;5.57;3.90;;;;;;;14.89;49.99;97150.31;5053257;28;20209;-79
2023/04/15 11:13:28;;;;;;;5.07;4.33;;;;;;;15.09;51.38;97170.41;5053600;28;20267;-79
2023/04/15 11:16:00;;;;;;;7.47;4.30;;;;;;;15.12;49.76;97146.13;5053679;28;20254;-79
2023/04/15 11:18:29;;;;;;;8.90;3.97;;;;;;;15.07;50.10;97159.91;5053817;28;20220;-79
2023/04/15 11:21:00;;;;;;;5.00;3.93;;;;;;;15.00;48.66;97142.06;5052806;28;20265;-79
2023/04/15 11:23:33;;;;;;;7.50;4.00;;;;;;;15.14;48.96;97150.31;5053650;28;20212;-79
2023/04/15 11:26:01;;;;;;;5.57;3.63;;;;;;;15.17;49.13;97155.34;5053598;28;20213;-80
2023/04/15 11:28:30;;;;;;;8.30;4.40;;;;;;;14.97;49.65;97158.38;5053445;28;20584;-80
2023/04/15 11:30:57;;;;;;;7.33;4.80;;;;;;;14.75;50.55;97164.19;5052437;28;20305;-79
2023/04/15 11:33:24;;;;;;;4.93;3.97;;;;;;;14.66;52.05;97175.75;5053471;28;20265;-77
2023/04/15 11:35:53;;;;;;;4.53;3.73;;;;;;;14.35;50.30;97163.88;5053357;28;20238;-84